Moretown, VT (05660)

5:50 AM EDT on September 02, 2015 (GMT -0400)
Center Fayston Rd | | Change Station
CLOSE
Current Station
Personal Weather Station
Location: Moretown, VT
Elevation: 1381 ft
Nearby Weather Stations

Elev 1381 ft 44.22 °N, 72.82 °W | Updated 25 seconds ago

Mostly Cloudy
Mostly Cloudy
59.9 °F
Feels Like 59.9 °F
N
1.1
Wind Variable Wind from SSW
Gusts 2.0 mph

Today
High -- | Low -- °F
--% Chance of Precip.
Yesterday
High -- | Low -- °F
Precip. -- in
6:14 AM 7:25 PM
Waning Gibbous, 81% visible
Pressure 30.06 in
Visibility 0.2 miles
Clouds
Dew Point 59 °F
Humidity 96%
Rainfall 0.00 in
Snow Depth Not available.
UV Not available.
Pollen 8.10 out of 12
Air Quality Not available.
Flu Activity Not available.
METAR KMPV 020851Z AUTO 00000KT 1/4SM FG VV001 13/13 A3006 RMK AO2 SLP177 T01330128 56007
Pressure 30.06 in
Visibility 0.2 miles
Clouds
Dew Point 59 °F
Humidity 96%
Rainfall 0.00 in
Snow Depth Not available.
UV Not available.
Pollen 8.10 out of 12
Air Quality Not available.
Flu Activity Not available.
METAR KMPV 020851Z AUTO 00000KT 1/4SM FG VV001 13/13 A3006 RMK AO2 SLP177 T01330128 56007

10-Day Weather Forecast

×

Almanac

Astronomy

Sep. 02, 2015 Rise Set
Actual Time
Civil Twilight
Nautical Twilight
Astronomical Twilight
Moon
Length of Visible Light
Length of Day
Tomorrow will be .
, % of the Moon is Illuminated

Today's Extremes

State Highs State Lows

Community

WunderPhotos

Upload Photos

1,851,731 photos uploaded!

WunderBlogs® & News

Nearby

Air Quality

  Air Quality AQ Index Pollutant
Not available.

Snow Depth

Station Depth Elevation

Earthquake Activity

City Distance Mag. Time & Date
Minimum magnitude displayed is 2.5.

Coastal Water Temperatures

Place Temperature

Stations

Nearby Weather Stations

Station Location Temp. Windchill Dew Point Humidity Wind Precip. Elev Updated Type